• Join FlightAware (Why Join?)
  • Login
  • US Flag 
08:42PM EDT


 

Airport Tracker/Info


-or-


 

Live Flight TrackerFlight Track Log ✈ UAL5881 ✈ 26-Apr-2013 ✈ KORD - KIND

Flight Track Log - Related Links

Times and Time Zones

All times are in EDT time to prevent confusion due to time zone crossing. See the UAL5881 flight status page for this flight to view local times or setup timezone preferences in your user account.

Time Position Orientation Groundspeed Altitude Reporting Facility
EDT Latitude Longitude Course Direction KTS MPH feet Rate Location/Type
08:10AM 41.9500 -87.9000 180° South 159 183 1,800  Level Chicago TRACON
08:11AM 41.9000 -87.9000 180° South 219 252 3,800 2,460 Climbing Chicago TRACON
08:12AM 41.8042 -87.8850 173° South 257 296 7,500 2,760 Climbing Chicago Center
08:13AM 41.7303 -87.8517 161° South 286 329 10,200 2,520 Climbing Chicago Center
08:14AM 41.6578 -87.7867 146° Southeast 310 357 12,700 2,340 Climbing Chicago Center
08:15AM 41.5783 -87.7347 154° Southeast 317 365 15,000 1,800 Climbing Chicago Center
08:17AM 41.4925 -87.6803 155° Southeast 332 382 16,500 1,380 Climbing Chicago Center
08:18AM 41.3981 -87.6219 155° Southeast 359 413 17,900 1,020 Climbing Chicago Center
08:19AM 41.2972 -87.5603 155° Southeast 386 444 18,600 960 Climbing Chicago Center
08:20AM 41.1953 -87.4964 155° Southeast 400 460 20,000 1,140 Climbing Chicago Center
08:21AM 41.0647 -87.4183 156° South 422 486 21,000 480 Climbing Chicago Center
08:22AM 40.9508 -87.3494 155° Southeast 447 514 21,000  Level Chicago Center
08:23AM 40.8392 -87.2800 155° Southeast 445 512 21,000  Level Chicago Center
08:24AM 40.7275 -87.2128 155° Southeast 441 507 21,000  Level Chicago Center
08:25AM 40.6175 -87.1458 155° Southeast 438 504 21,000 -1,320 Level Chicago Center
08:26AM 40.4942 -87.0725 156° South 443 510 18,400 -2,340 Descending Chicago Center
08:27AM 40.3886 -87.0089 155° Southeast 418 481 16,200 -2,400 Descending Chicago Center
08:28AM 40.2861 -86.9486 156° South 405 466 13,500 -1,560 Descending Chicago Center
08:29AM 40.1861 -86.8883 155° Southeast 395 455 13,000 -300 Descending Chicago Center
08:30AM 40.1039 -86.7886 137° Southeast 394 453 13,000  Level Indianapolis Center
08:31AM 40.0289 -86.6789 132° Southeast 401 461 13,000 -900 Level Indianapolis Center
08:32AM 39.9575 -86.5744 132° Southeast 391 450 11,200 -1,620 Descending Indianapolis Center
08:33AM 39.9014 -86.4644 124° Southeast 317 365 9,800 -2,160 Descending Indianapolis Center
08:34AM 39.8675 -86.3742 116° Southeast 283 326 6,800 -2,940 Descending Indianapolis Center
08:35AM 39.8500 -86.3167 112° Southeast 258 297 5,200 -1,920 Descending Indianapolis TRACON
08:36AM 39.8333 -86.2500 108° East 228 262 3,900 -1,200 Descending Indianapolis TRACON
08:37AM 39.7833 -86.2000 142° Southeast 186 214 2,800 -1,020 Descending Indianapolis TRACON